Time;durP1;ratioP1;P1;durP2;ratioP2;P2;SDS_P1;SDS_P2;PMS_P1;PMS_P2;Temp;Humidity;BMP_temperature;BMP_pressure;BME280_temperature;BME280_humidity;BME280_pressure;Samples;Min_cycle;Max_cycle;Signal;HPM_P1;HPM_P2
2023/08/12 00:00:29;;;;;;;3.60;2.70;;;;;;;25.26;38.03;101026.69;106490;1285;66890;-89
2023/08/12 00:02:55;;;;;;;3.00;2.60;;;;;;;25.26;38.26;101023.13;106583;1284;69218;-88
2023/08/12 00:05:21;;;;;;;3.00;2.60;;;;;;;25.28;38.38;101026.57;104948;1288;69322;-88
2023/08/12 00:07:48;;;;;;;3.50;2.60;;;;;;;25.28;38.20;101024.20;104555;1285;69384;-88
2023/08/12 00:10:13;;;;;;;4.20;2.60;;;;;;;25.29;38.00;101025.42;104520;1285;69324;-88
2023/08/12 00:12:43;;;;;;;3.00;2.50;;;;;;;25.29;38.01;101026.61;104547;1285;69256;-92
2023/08/12 00:15:10;;;;;;;2.70;2.50;;;;;;;25.29;38.21;101020.73;104374;1291;69379;-88
2023/08/12 00:17:37;;;;;;;3.30;2.60;;;;;;;25.29;38.12;101017.34;104601;1285;69177;-88
2023/08/12 00:20:08;;;;;;;5.10;3.10;;;;;;;25.28;38.26;101016.72;104481;1286;69258;-88
2023/08/12 00:22:34;;;;;;;2.90;2.60;;;;;;;25.28;38.30;101021.36;104608;1285;69210;-88
2023/08/12 00:25:00;;;;;;;3.80;2.80;;;;;;;25.28;38.08;101017.40;104464;1285;69274;-89
2023/08/12 00:27:25;;;;;;;2.90;2.50;;;;;;;25.28;38.01;101018.54;104415;1289;66933;-88
2023/08/12 00:29:51;;;;;;;3.40;2.80;;;;;;;25.28;38.31;101018.27;104649;1289;69119;-88
2023/08/12 00:32:16;;;;;;;2.90;2.60;;;;;;;25.28;38.16;101018.90;104448;1285;67887;-88
2023/08/12 00:34:42;;;;;;;4.30;3.20;;;;;;;25.28;38.29;101018.59;104614;1285;73813;-88
2023/08/12 00:37:08;;;;;;;3.80;2.80;;;;;;;25.27;38.46;101020.40;104482;1290;69291;-88
2023/08/12 00:39:37;;;;;;;4.10;2.70;;;;;;;25.27;38.30;101019.23;104363;1286;69169;-93
2023/08/12 00:42:03;;;;;;;3.90;2.80;;;;;;;25.27;38.20;101021.33;104343;1285;69366;-88
2023/08/12 00:44:29;;;;;;;3.00;2.60;;;;;;;25.26;38.23;101020.01;104355;1285;69350;-88
2023/08/12 00:46:55;;;;;;;3.10;2.40;;;;;;;25.27;38.42;101023.60;104532;1291;69080;-88
2023/08/12 00:49:21;;;;;;;2.80;2.50;;;;;;;25.25;38.38;101020.23;104409;1290;69210;-88
2023/08/12 00:51:47;;;;;;;2.70;2.50;;;;;;;25.26;38.10;101021.52;104550;1285;69263;-89
2023/08/12 00:54:15;;;;;;;4.30;2.50;;;;;;;25.26;38.25;101018.66;104303;1285;67812;-88
2023/08/12 00:56:41;;;;;;;3.70;2.60;;;;;;;25.25;38.30;101016.51;104582;1286;73400;-88
2023/08/12 00:59:07;;;;;;;3.20;2.90;;;;;;;25.25;38.45;101017.45;104499;1285;69450;-88
2023/08/12 01:01:33;;;;;;;3.60;2.90;;;;;;;25.25;38.37;101016.20;104467;1290;69271;-88
2023/08/12 01:03:59;;;;;;;4.10;3.30;;;;;;;25.23;38.43;101015.29;104431;1289;69155;-88
2023/08/12 01:06:33;;;;;;;4.50;3.00;;;;;;;25.24;38.15;101023.32;104230;1287;69261;-93
2023/08/12 01:08:59;;;;;;;3.80;2.60;;;;;;;25.24;38.16;101021.56;104286;1287;73574;-88
2023/08/12 01:11:31;;;;;;;3.00;2.80;;;;;;;25.24;38.42;101020.59;104500;1290;69266;-88
2023/08/12 01:14:10;;;;;;;3.80;2.80;;;;;;;25.23;38.61;101025.48;104446;1288;69140;-89
2023/08/12 01:16:38;;;;;;;3.30;3.00;;;;;;;25.23;38.48;101020.07;104387;1288;69265;-88
2023/08/12 01:19:05;;;;;;;3.40;3.10;;;;;;;25.24;38.15;101016.98;105031;1289;69267;-88
2023/08/12 01:21:30;;;;;;;4.50;2.90;;;;;;;25.23;38.31;101019.83;104232;1288;69190;-89
2023/08/12 01:23:56;;;;;;;3.50;3.20;;;;;;;25.24;38.44;101023.94;104062;1287;69253;-88
2023/08/12 01:26:21;;;;;;;4.80;3.20;;;;;;;25.23;38.35;101021.67;104371;1287;69298;-88
2023/08/12 01:28:47;;;;;;;3.60;3.00;;;;;;;25.24;38.29;101022.70;104385;1288;69262;-88
2023/08/12 01:31:24;;;;;;;2.90;2.60;;;;;;;25.23;38.46;101022.45;104573;1288;68442;-88
2023/08/12 01:33:56;;;;;;;3.10;2.80;;;;;;;25.23;38.41;101023.73;104484;1288;67384;-88
2023/08/12 01:36:27;;;;;;;4.40;3.10;;;;;;;25.23;38.27;101022.14;104315;1287;69132;-93
2023/08/12 01:38:52;;;;;;;3.60;2.90;;;;;;;25.22;38.32;101022.41;104286;1288;69271;-88
2023/08/12 01:41:18;;;;;;;3.40;2.90;;;;;;;25.23;38.24;101017.04;104475;1287;69174;-88
2023/08/12 01:43:44;;;;;;;3.40;3.10;;;;;;;25.22;38.31;101020.23;104374;1290;69301;-88
2023/08/12 01:46:09;;;;;;;4.40;3.00;;;;;;;25.22;38.35;101022.71;105347;1287;69255;-89
2023/08/12 01:48:35;;;;;;;3.80;2.90;;;;;;;25.22;38.37;101023.95;104343;1286;69341;-89
2023/08/12 01:51:00;;;;;;;4.70;3.20;;;;;;;25.21;38.61;101021.99;104236;1287;69200;-88
2023/08/12 01:53:26;;;;;;;5.00;3.30;;;;;;;25.22;38.46;101027.35;104479;1287;69316;-88
2023/08/12 01:55:52;;;;;;;3.50;3.20;;;;;;;25.22;38.39;101030.55;104263;1290;69174;-88
2023/08/12 01:58:17;;;;;;;3.40;3.10;;;;;;;25.22;38.30;101030.43;104329;1290;69220;-88
2023/08/12 02:00:42;;;;;;;3.50;3.20;;;;;;;25.21;38.40;101030.95;104434;1288;69278;-88
2023/08/12 02:03:21;;;;;;;3.70;3.30;;;;;;;25.21;38.51;101029.93;104234;1288;69380;-92
2023/08/12 02:05:47;;;;;;;4.10;3.60;;;;;;;25.21;38.43;101029.99;104392;1285;69210;-88
2023/08/12 02:08:13;;;;;;;3.80;3.40;;;;;;;25.21;38.36;101035.81;104553;1288;69807;-88
2023/08/12 02:10:38;;;;;;;3.90;3.50;;;;;;;25.20;38.44;101033.45;104549;1288;70836;-88
2023/08/12 02:13:04;;;;;;;4.90;3.20;;;;;;;25.20;38.47;101034.05;104521;1288;69274;-88
2023/08/12 02:15:30;;;;;;;4.20;3.60;;;;;;;25.20;38.37;101035.41;104406;1288;69347;-88
2023/08/12 02:17:56;;;;;;;3.80;3.50;;;;;;;25.20;38.58;101037.41;104051;1285;331769;-87
2023/08/12 02:20:22;;;;;;;4.20;3.60;;;;;;;25.20;38.73;101036.84;104525;1288;67264;-88
2023/08/12 02:22:47;;;;;;;3.90;3.40;;;;;;;25.20;38.41;101042.25;104554;1287;67828;-88
2023/08/12 02:25:13;;;;;;;4.80;3.50;;;;;;;25.20;38.58;101045.70;104529;1285;69274;-87
2023/08/12 02:27:38;;;;;;;3.90;3.50;;;;;;;25.20;38.37;101044.26;104410;1285;69209;-87
2023/08/12 02:32:37;;;;;;;4.40;3.50;;;;;;;25.19;38.71;101044.88;104543;1284;69091;-87
2023/08/12 02:35:06;;;;;;;4.40;3.90;;;;;;;25.20;38.62;101044.36;104604;1288;69276;-88
2023/08/12 02:37:32;;;;;;;5.30;4.10;;;;;;;25.20;38.67;101045.75;104534;1285;66683;-88
2023/08/12 02:39:57;;;;;;;4.20;3.80;;;;;;;25.20;38.70;101050.33;104613;1289;69255;-88
2023/08/12 02:42:23;;;;;;;4.90;3.70;;;;;;;25.20;38.52;101051.56;104647;1285;69274;-88
2023/08/12 02:44:48;;;;;;;4.50;4.10;;;;;;;25.20;38.47;101054.82;104441;1288;69215;-88
2023/08/12 02:47:14;;;;;;;4.40;4.00;;;;;;;25.19;38.59;101055.08;104724;1285;69378;-88
2023/08/12 02:49:39;;;;;;;3.90;3.50;;;;;;;25.19;38.67;101058.63;104699;1285;69301;-88
2023/08/12 02:52:05;;;;;;;4.30;3.70;;;;;;;25.20;38.69;101061.77;104723;1285;69301;-88
2023/08/12 02:54:30;;;;;;;4.10;3.70;;;;;;;25.19;38.70;101063.11;104507;1285;69259;-88
2023/08/12 02:59:38;;;;;;;4.00;3.70;;;;;;;25.19;38.42;101068.16;104339;1286;73230;-88
2023/08/12 03:02:04;;;;;;;4.50;3.90;;;;;;;25.19;38.59;101067.70;104387;1288;69200;-87
2023/08/12 03:04:29;;;;;;;4.50;3.70;;;;;;;25.18;38.53;101071.39;104333;1287;69679;-88
2023/08/12 03:06:54;;;;;;;4.30;3.90;;;;;;;25.19;38.46;101072.80;104069;1288;69249;-87
2023/08/12 03:09:20;;;;;;;4.60;3.80;;;;;;;25.18;38.64;101067.04;104104;1293;69262;-88
2023/08/12 03:11:45;;;;;;;4.50;4.10;;;;;;;25.18;38.51;101068.67;104092;1291;69218;-88
2023/08/12 03:14:11;;;;;;;4.90;4.40;;;;;;;25.18;38.60;101069.09;104307;1287;69155;-88
2023/08/12 03:16:37;;;;;;;4.00;3.60;;;;;;;25.18;38.66;101072.90;104287;1292;70509;-87
2023/08/12 03:19:02;;;;;;;5.60;4.20;;;;;;;25.18;38.42;101073.21;104238;1288;69390;-88
2023/08/12 03:21:28;;;;;;;4.30;3.90;;;;;;;25.18;38.47;101074.70;104040;1293;70072;-88
2023/08/12 03:26:27;;;;;;;5.00;4.10;;;;;;;25.17;38.70;101074.20;104315;1288;69111;-88
2023/08/12 03:28:52;;;;;;;4.40;4.00;;;;;;;25.17;38.76;101071.21;104082;1290;69284;-87
2023/08/12 03:31:18;;;;;;;4.50;4.10;;;;;;;25.17;38.72;101075.64;104304;1294;69230;-87
2023/08/12 03:33:43;;;;;;;4.40;3.90;;;;;;;25.17;38.49;101077.34;104340;1292;69208;-88
2023/08/12 03:36:09;;;;;;;5.50;4.10;;;;;;;25.17;38.59;101077.64;104418;1290;69253;-88
2023/08/12 03:38:35;;;;;;;5.00;4.10;;;;;;;25.17;38.37;101076.88;104039;1292;69281;-87
2023/08/12 03:41:02;;;;;;;4.90;4.40;;;;;;;25.17;38.48;101083.26;104264;1290;80323;-87
2023/08/12 03:43:28;;;;;;;4.60;4.20;;;;;;;25.17;38.52;101087.08;104364;1289;69217;-87
2023/08/12 03:45:53;;;;;;;4.50;4.10;;;;;;;25.17;38.58;101087.80;104374;1289;69324;-87
2023/08/12 03:48:19;;;;;;;6.20;4.00;;;;;;;25.17;38.50;101090.20;104383;1292;69251;-87
2023/08/12 03:53:25;;;;;;;;;;;;;;;25.17;38.63;101094.23;104288;1288;69202;-88
2023/08/12 03:55:50;;;;;;;4.40;4.00;;;;;;;25.14;38.63;101096.95;104450;1290;69221;-87
2023/08/12 03:58:16;;;;;;;5.00;4.50;;;;;;;25.15;38.80;101095.02;104186;1293;69352;-88
2023/08/12 04:00:45;;;;;;;6.60;4.50;;;;;;;25.15;38.45;101096.61;104401;1286;69147;-88
2023/08/12 04:03:11;;;;;;;4.50;4.10;;;;;;;25.15;38.65;101100.13;104383;1287;69125;-88
2023/08/12 04:05:36;;;;;;;5.10;4.50;;;;;;;25.15;38.74;101102.32;104213;1287;69369;-88
2023/08/12 04:08:02;;;;;;;4.90;4.40;;;;;;;25.15;38.78;101102.48;104418;1288;69283;-87
2023/08/12 04:10:27;;;;;;;5.40;4.60;;;;;;;25.15;38.57;101106.14;104298;1288;80173;-87
2023/08/12 04:12:53;;;;;;;4.80;4.30;;;;;;;25.16;38.57;101108.92;104457;1288;69262;-88
2023/08/12 04:15:18;;;;;;;4.30;3.90;;;;;;;25.16;38.88;101112.59;104355;1288;69369;-88
2023/08/12 04:17:53;;;;;;;4.80;4.40;;;;;;;25.16;38.64;101112.84;104299;1288;69270;-93
2023/08/12 04:20:18;;;;;;;4.80;4.30;;;;;;;25.16;38.64;101108.41;104244;1290;69163;-87
2023/08/12 04:22:44;;;;;;;5.30;4.60;;;;;;;25.16;38.68;101112.73;104438;1290;69303;-88
2023/08/12 04:25:09;;;;;;;5.30;4.50;;;;;;;25.16;38.54;101119.26;104370;1287;69159;-88
2023/08/12 04:27:35;;;;;;;4.50;4.10;;;;;;;25.16;38.53;101119.52;104497;1290;69325;-88
2023/08/12 04:30:00;;;;;;;6.40;4.60;;;;;;;25.16;38.71;101122.05;104536;1286;69278;-88
2023/08/12 04:32:26;;;;;;;4.60;4.10;;;;;;;25.16;38.61;101124.66;104346;1290;69282;-88
2023/08/12 04:34:51;;;;;;;5.60;4.60;;;;;;;25.16;38.65;101127.77;104445;1287;69265;-87
2023/08/12 04:37:17;;;;;;;5.50;4.40;;;;;;;25.16;38.48;101126.63;104277;1288;69710;-88
2023/08/12 04:39:42;;;;;;;4.80;4.30;;;;;;;25.16;38.69;101126.27;104305;1288;69330;-87
2023/08/12 04:42:08;;;;;;;5.30;4.70;;;;;;;25.16;38.61;101128.64;104331;1292;75308;-88
2023/08/12 04:44:51;;;;;;;5.20;4.40;;;;;;;25.17;38.56;101128.64;104297;1286;69315;-92
2023/08/12 04:47:16;;;;;;;4.90;4.50;;;;;;;25.16;38.57;101127.56;104334;1290;69192;-88
2023/08/12 04:49:42;;;;;;;5.20;4.70;;;;;;;25.16;38.73;101128.13;104371;1288;69284;-88
2023/08/12 04:52:08;;;;;;;5.20;4.70;;;;;;;25.16;38.71;101131.73;104307;1288;69293;-87
2023/08/12 04:54:34;;;;;;;5.30;4.80;;;;;;;25.16;38.79;101133.94;104456;1287;70312;-88
2023/08/12 04:56:59;;;;;;;5.30;4.80;;;;;;;25.16;38.79;101135.64;104533;1286;69280;-88
2023/08/12 04:59:25;;;;;;;5.40;4.80;;;;;;;25.16;38.79;101140.02;104420;1291;69208;-87
2023/08/12 05:01:51;;;;;;;8.00;4.80;;;;;;;25.16;38.47;101133.58;105293;1286;67383;-88
2023/08/12 05:04:16;;;;;;;5.00;4.50;;;;;;;25.17;38.72;101135.89;104542;1289;69383;-88
2023/08/12 05:06:42;;;;;;;5.20;4.70;;;;;;;25.17;38.58;101138.58;104476;1293;69144;-88
2023/08/12 05:09:08;;;;;;;4.90;4.30;;;;;;;25.17;38.72;101141.14;104418;1291;69178;-88
2023/08/12 05:11:42;;;;;;;5.30;4.80;;;;;;;25.17;38.76;101142.42;104391;1290;69130;-93
2023/08/12 05:14:08;;;;;;;4.90;4.40;;;;;;;25.16;38.60;101145.21;104320;1288;69166;-88
2023/08/12 05:16:33;;;;;;;5.10;4.40;;;;;;;25.17;38.56;101146.86;104366;1290;66785;-88
2023/08/12 05:18:59;;;;;;;4.80;4.40;;;;;;;25.18;38.66;101158.70;104571;1287;69272;-88
2023/08/12 05:21:24;;;;;;;5.50;4.70;;;;;;;25.18;38.82;101154.63;104349;1293;69201;-88
2023/08/12 05:23:50;;;;;;;5.20;4.60;;;;;;;25.18;38.84;101160.13;104558;1288;69304;-88
2023/08/12 05:26:15;;;;;;;6.20;4.80;;;;;;;25.19;38.71;101155.65;104269;1288;74543;-87
2023/08/12 05:28:41;;;;;;;5.70;4.90;;;;;;;25.19;38.48;101154.56;104487;1288;66928;-88
2023/08/12 05:31:07;;;;;;;5.50;4.80;;;;;;;25.19;38.64;101155.45;104433;1288;69156;-88
2023/08/12 05:33:33;;;;;;;6.30;4.80;;;;;;;25.19;38.71;101160.23;104611;1288;67882;-88
2023/08/12 05:35:58;;;;;;;5.00;4.50;;;;;;;25.19;38.41;101158.02;104695;1288;69259;-88
2023/08/12 05:40:57;;;;;;;5.20;4.60;;;;;;;25.20;38.78;101162.02;105905;1285;69115;-88
2023/08/12 05:43:23;;;;;;;4.80;4.30;;;;;;;25.20;38.78;101164.20;106713;1285;66873;-88
2023/08/12 05:45:49;;;;;;;5.40;4.90;;;;;;;25.20;38.58;101166.52;106567;1289;66771;-88
2023/08/12 05:48:15;;;;;;;5.60;4.90;;;;;;;25.22;38.89;101167.64;106496;1285;67797;-89
2023/08/12 05:50:40;;;;;;;5.00;4.50;;;;;;;25.23;38.79;101165.27;106569;1285;66843;-88
2023/08/12 05:53:06;;;;;;;5.30;4.80;;;;;;;25.25;38.76;101159.89;106688;1285;66500;-88
2023/08/12 05:55:34;;;;;;;5.70;4.70;;;;;;;25.26;38.51;101160.66;106539;1285;69209;-89
2023/08/12 05:58:02;;;;;;;;;;;;;;;25.29;38.52;101161.80;105060;1285;82456;-87
2023/08/12 06:00:28;;;;;;;4.80;4.30;;;;;;;25.26;38.67;101161.89;104587;1285;69310;-88
2023/08/12 06:02:53;;;;;;;4.90;4.50;;;;;;;25.27;38.56;101165.18;104561;1289;67313;-88
2023/08/12 06:05:29;;;;;;;5.50;4.80;;;;;;;25.29;38.53;101163.91;104581;1289;69229;-93
2023/08/12 06:07:54;;;;;;;6.50;4.90;;;;;;;25.29;38.80;101163.09;104335;1285;69459;-88
2023/08/12 06:10:20;;;;;;;7.70;4.40;;;;;;;25.29;38.47;101159.44;104766;1288;70050;-88
2023/08/12 06:12:45;;;;;;;6.80;4.60;;;;;;;25.29;38.66;101163.27;104546;1287;69257;-88
2023/08/12 06:15:11;;;;;;;4.90;4.30;;;;;;;25.29;38.67;101162.02;104434;1288;69268;-88
2023/08/12 06:17:36;;;;;;;4.90;4.40;;;;;;;25.29;38.61;101162.58;104684;1285;69243;-88
2023/08/12 06:20:02;;;;;;;5.00;4.50;;;;;;;25.29;38.62;101161.85;104336;1290;69262;-88
2023/08/12 06:22:28;;;;;;;5.90;4.90;;;;;;;25.29;38.58;101159.44;104571;1287;69131;-88
2023/08/12 06:24:53;;;;;;;5.90;4.50;;;;;;;25.29;38.63;101161.10;104512;1287;69286;-88
2023/08/12 06:27:20;;;;;;;4.90;4.40;;;;;;;25.29;38.61;101159.39;104410;1288;69291;-88
2023/08/12 06:29:46;;;;;;;6.30;4.30;;;;;;;25.29;38.55;101162.84;104403;1288;69263;-88
2023/08/12 06:32:29;;;;;;;6.50;4.60;;;;;;;25.30;38.66;101159.23;104356;1286;69273;-92
2023/08/12 06:34:55;;;;;;;4.70;4.20;;;;;;;25.30;38.36;101157.84;104451;1288;69034;-88
2023/08/12 06:37:20;;;;;;;5.20;4.30;;;;;;;25.31;38.37;101163.70;104616;1288;69245;-89
2023/08/12 06:39:46;;;;;;;4.90;4.30;;;;;;;25.32;38.67;101164.73;104567;1286;69271;-88
2023/08/12 06:42:11;;;;;;;5.90;4.30;;;;;;;25.33;38.46;101166.00;104306;1285;69218;-88
2023/08/12 06:44:37;;;;;;;4.60;4.20;;;;;;;25.33;38.58;101165.90;104620;1285;69251;-88
2023/08/12 06:47:03;;;;;;;5.70;4.30;;;;;;;25.33;38.51;101167.45;104347;1290;69192;-88
2023/08/12 06:49:28;;;;;;;4.90;4.40;;;;;;;25.33;38.48;101159.83;104400;1289;67370;-88
2023/08/12 06:51:54;;;;;;;4.90;4.10;;;;;;;25.34;38.44;101162.71;104608;1291;69195;-88
2023/08/12 06:54:22;;;;;;;5.60;4.70;;;;;;;25.34;38.34;101167.70;104482;1285;69283;-88
2023/08/12 06:56:49;;;;;;;4.30;3.90;;;;;;;25.34;38.48;101168.42;104594;1290;69193;-87
2023/08/12 06:59:15;;;;;;;5.80;4.30;;;;;;;25.35;38.42;101157.55;104439;1290;69342;-93
2023/08/12 07:01:41;;;;;;;5.00;4.10;;;;;;;25.35;38.42;101157.75;104378;1288;69283;-88
2023/08/12 07:04:06;;;;;;;4.30;3.90;;;;;;;25.35;38.15;101167.12;104707;1285;69266;-87
2023/08/12 07:06:32;;;;;;;5.90;4.40;;;;;;;25.35;38.20;101167.69;104280;1288;69797;-88
2023/08/12 07:08:57;;;;;;;4.30;3.90;;;;;;;25.36;38.12;101167.33;104562;1285;69116;-88
2023/08/12 07:11:23;;;;;;;5.10;4.30;;;;;;;25.37;38.19;101168.81;104227;1291;69214;-87
2023/08/12 07:13:48;;;;;;;4.70;4.10;;;;;;;25.37;38.13;101165.58;104308;1285;69342;-88
2023/08/12 07:16:14;;;;;;;4.90;4.40;;;;;;;25.37;38.15;101164.23;104272;1285;70068;-87
2023/08/12 07:18:39;;;;;;;6.20;4.10;;;;;;;25.38;38.04;101166.54;104561;1290;69271;-88
2023/08/12 07:21:05;;;;;;;4.40;4.00;;;;;;;25.39;38.14;101162.56;104273;1291;69253;-88
2023/08/12 07:23:32;;;;;;;4.60;4.10;;;;;;;25.40;38.16;101161.90;104596;1285;69258;-88
2023/08/12 07:26:01;;;;;;;7.00;4.30;;;;;;;25.40;37.84;101162.41;104448;1288;69260;-93
2023/08/12 07:28:26;;;;;;;5.80;4.10;;;;;;;25.40;38.22;101164.52;104406;1291;69200;-88
2023/08/12 07:30:52;;;;;;;5.30;4.10;;;;;;;25.42;38.06;101161.73;104506;1290;69247;-88
2023/08/12 07:33:17;;;;;;;4.70;4.30;;;;;;;25.42;38.12;101161.21;104410;1285;69353;-88
2023/08/12 07:35:43;;;;;;;5.80;4.30;;;;;;;25.43;38.00;101160.50;104384;1293;69254;-88
2023/08/12 07:38:09;;;;;;;5.90;4.20;;;;;;;25.44;38.11;101162.41;104478;1290;69355;-88
2023/08/12 07:40:34;;;;;;;4.50;4.10;;;;;;;25.44;37.84;101161.89;104524;1288;69264;-88
2023/08/12 07:43:00;;;;;;;6.00;4.00;;;;;;;25.44;37.97;101160.08;104511;1285;69177;-88
2023/08/12 07:45:25;;;;;;;4.50;4.10;;;;;;;25.45;38.09;101161.83;104654;1285;69387;-87
2023/08/12 07:47:51;;;;;;;4.80;4.20;;;;;;;25.45;38.05;101160.85;104510;1285;69227;-88
2023/08/12 07:50:17;;;;;;;4.80;3.80;;;;;;;25.45;38.17;101162.80;104590;1285;69270;-88
2023/08/12 07:52:42;;;;;;;4.80;4.20;;;;;;;25.46;38.07;101164.98;104357;1289;69247;-88
2023/08/12 07:55:08;;;;;;;4.60;4.10;;;;;;;25.47;38.06;101163.79;104496;1285;69387;-88
2023/08/12 07:57:33;;;;;;;5.20;4.50;;;;;;;25.47;38.05;101165.83;104728;1285;69218;-88
2023/08/12 07:59:59;;;;;;;4.50;4.10;;;;;;;25.48;37.88;101164.60;104469;1291;70052;-88
2023/08/12 08:02:24;;;;;;;4.30;3.90;;;;;;;25.47;37.94;101164.28;104679;1288;69230;-88
2023/08/12 08:05:08;;;;;;;5.80;4.30;;;;;;;25.49;37.65;101161.61;104247;1285;69369;-91
2023/08/12 08:07:33;;;;;;;4.70;3.90;;;;;;;25.48;37.98;101163.56;104420;1289;73358;-88
2023/08/12 08:09:59;;;;;;;4.50;4.10;;;;;;;25.48;37.98;101162.83;104715;1290;69696;-88
2023/08/12 08:12:24;;;;;;;4.30;3.90;;;;;;;25.48;37.95;101162.98;104711;1286;69208;-88
2023/08/12 08:14:50;;;;;;;4.40;3.80;;;;;;;25.49;37.86;101164.59;105463;1285;69233;-88
2023/08/12 08:17:15;;;;;;;4.80;4.30;;;;;;;25.49;37.72;101162.66;104500;1285;69311;-88
2023/08/12 08:19:41;;;;;;;5.10;4.10;;;;;;;25.50;37.74;101165.55;105612;1288;69132;-88
2023/08/12 08:22:06;;;;;;;4.90;4.20;;;;;;;25.50;37.90;101163.65;104438;1290;69414;-88
2023/08/12 08:24:32;;;;;;;6.30;4.20;;;;;;;25.50;37.96;101166.06;104729;1285;69256;-89
2023/08/12 08:26:57;;;;;;;4.60;4.00;;;;;;;25.51;37.84;101163.29;104612;1289;69269;-89
2023/08/12 08:29:23;;;;;;;4.90;4.00;;;;;;;25.51;37.90;101158.90;104615;1288;69552;-89
2023/08/12 08:31:57;;;;;;;5.20;4.20;;;;;;;25.51;37.91;101164.91;104372;1288;69825;-93
2023/08/12 08:34:23;;;;;;;4.70;3.90;;;;;;;25.51;38.01;101164.92;104435;1289;69280;-89
2023/08/12 08:36:48;;;;;;;8.70;4.30;;;;;;;25.51;37.88;101163.64;104586;1290;67818;-89
2023/08/12 08:39:14;;;;;;;4.90;3.80;;;;;;;25.52;38.05;101161.27;104721;1288;69227;-89
2023/08/12 08:41:40;;;;;;;4.10;3.70;;;;;;;25.52;37.82;101158.61;104473;1291;69265;-89
2023/08/12 08:44:08;;;;;;;6.10;4.10;;;;;;;25.52;37.95;101157.91;104422;1285;69228;-89
2023/08/12 08:46:34;;;;;;;4.70;3.90;;;;;;;25.52;38.05;101159.20;104539;1291;69550;-89
2023/08/12 08:49:02;;;;;;;4.50;4.10;;;;;;;25.53;37.85;101158.52;104487;1285;70291;-89
2023/08/12 08:51:30;;;;;;;4.50;4.10;;;;;;;25.53;37.97;101154.96;104535;1289;69212;-89
2023/08/12 08:53:56;;;;;;;5.10;4.00;;;;;;;25.53;37.95;101153.77;104639;1285;70384;-88
2023/08/12 08:56:21;;;;;;;4.70;4.10;;;;;;;25.54;37.94;101148.88;104361;1287;69296;-89
2023/08/12 08:58:52;;;;;;;4.20;3.80;;;;;;;25.54;37.85;101147.73;104633;1286;69125;-94
2023/08/12 09:01:18;;;;;;;;;;;;;;;25.54;38.01;101145.73;104472;1285;73676;-89
2023/08/12 09:03:43;;;;;;;4.50;4.00;;;;;;;25.51;37.95;101147.20;104542;1289;70184;-89
2023/08/12 09:06:09;;;;;;;5.30;4.20;;;;;;;25.52;37.73;101148.23;104668;1288;70487;-89
2023/08/12 09:08:34;;;;;;;4.70;4.20;;;;;;;25.52;37.75;101146.10;104404;1285;67607;-89
2023/08/12 09:11:00;;;;;;;5.90;4.10;;;;;;;25.52;37.99;101141.67;104545;1281;69209;-88
2023/08/12 09:13:26;;;;;;;4.70;4.00;;;;;;;25.52;38.00;101141.92;104464;1288;69012;-88
2023/08/12 09:15:51;;;;;;;4.80;4.10;;;;;;;25.53;38.11;101139.40;104524;1290;69376;-88
2023/08/12 09:18:17;;;;;;;4.80;4.20;;;;;;;25.53;38.11;101138.77;104324;1286;69251;-88
2023/08/12 09:20:45;;;;;;;4.80;4.00;;;;;;;25.54;38.07;101133.30;104648;1289;69123;-88
2023/08/12 09:23:11;;;;;;;5.10;4.00;;;;;;;25.55;37.92;101134.44;104533;1286;69068;-88
2023/08/12 09:25:46;;;;;;;4.20;3.80;;;;;;;25.57;37.75;101133.19;104312;1286;69324;-91
2023/08/12 09:28:11;;;;;;;5.60;4.00;;;;;;;25.57;37.90;101128.80;104186;1288;69262;-88
2023/08/12 09:30:37;;;;;;;5.00;3.90;;;;;;;25.58;37.83;101126.84;104502;1289;69205;-87
2023/08/12 09:33:07;;;;;;;4.30;3.80;;;;;;;25.58;37.70;101123.73;104461;1287;69747;-88
2023/08/12 09:35:33;;;;;;;4.60;4.00;;;;;;;25.58;37.67;101120.50;104727;1286;73508;-88
2023/08/12 09:38:01;;;;;;;4.10;3.70;;;;;;;25.59;37.80;101122.14;104658;1285;69197;-88
2023/08/12 09:40:26;;;;;;;5.10;4.10;;;;;;;25.59;37.70;101120.34;104415;1288;69342;-88
2023/08/12 09:43:16;;;;;;;4.40;4.00;;;;;;;25.59;37.86;101117.50;104119;1283;69173;-88
2023/08/12 09:45:45;;;;;;;3.90;3.60;;;;;;;25.60;37.64;101116.16;104689;1285;69238;-88
2023/08/12 09:48:11;;;;;;;5.60;3.70;;;;;;;25.60;37.69;101111.83;104589;1290;73340;-88
2023/08/12 09:50:36;;;;;;;4.80;4.10;;;;;;;25.61;37.82;101111.15;104787;1285;69253;-88
2023/08/12 09:53:05;;;;;;;4.50;3.70;;;;;;;25.61;37.69;101108.21;104635;1290;69251;-88
2023/08/12 09:55:40;;;;;;;5.00;4.00;;;;;;;25.61;37.80;101101.11;104785;1285;69138;-93
2023/08/12 09:58:06;;;;;;;5.10;3.60;;;;;;;25.61;37.64;101102.39;104422;1283;69144;-88
2023/08/12 10:00:33;;;;;;;5.40;3.70;;;;;;;25.61;37.72;101103.56;104636;1285;69254;-88
2023/08/12 10:02:59;;;;;;;4.20;3.80;;;;;;;25.61;37.78;101098.92;104647;1288;69274;-88
2023/08/12 10:05:27;;;;;;;6.40;4.20;;;;;;;25.61;37.80;101095.37;104584;1290;69302;-88
2023/08/12 10:07:53;;;;;;;4.30;3.90;;;;;;;25.62;37.83;101094.44;104555;1285;69266;-88
2023/08/12 10:10:19;;;;;;;3.70;3.40;;;;;;;25.63;37.81;101090.31;104609;1285;70338;-88
2023/08/12 10:12:45;;;;;;;4.10;3.70;;;;;;;25.63;37.55;101088.88;104671;1284;67495;-88
2023/08/12 10:15:11;;;;;;;4.40;4.00;;;;;;;25.64;37.60;101094.79;104754;1288;67418;-89
2023/08/12 10:17:37;;;;;;;5.20;4.10;;;;;;;25.63;37.67;101093.55;104658;1286;69207;-88
2023/08/12 10:20:06;;;;;;;5.10;4.10;;;;;;;25.64;37.56;101085.19;104632;1285;69253;-88
2023/08/12 10:22:31;;;;;;;8.70;4.00;;;;;;;25.64;37.61;101083.48;104698;1285;69237;-94
2023/08/12 10:24:58;;;;;;;5.30;3.90;;;;;;;25.64;37.38;101078.70;104390;1285;69550;-88
2023/08/12 10:27:23;;;;;;;4.30;3.90;;;;;;;25.65;37.57;101083.02;104653;1284;69283;-89
2023/08/12 10:29:49;;;;;;;4.20;3.80;;;;;;;25.65;37.50;101077.92;104793;1285;69221;-88
2023/08/12 10:32:14;;;;;;;4.50;3.70;;;;;;;25.65;37.44;101074.15;104734;1285;69448;-88
2023/08/12 10:34:40;;;;;;;5.20;3.90;;;;;;;25.66;37.52;101072.80;105130;1285;73752;-89
2023/08/12 10:37:06;;;;;;;4.10;3.70;;;;;;;25.67;37.48;101070.11;104444;1285;69145;-88
2023/08/12 10:39:32;;;;;;;4.50;3.70;;;;;;;25.68;37.61;101068.66;104690;1291;69330;-88
2023/08/12 10:41:58;;;;;;;4.20;3.70;;;;;;;25.69;37.69;101057.94;104501;1285;69258;-88
2023/08/12 10:44:39;;;;;;;4.60;3.80;;;;;;;25.69;37.39;101061.65;104849;1288;69785;-89
2023/08/12 10:47:08;;;;;;;4.00;3.50;;;;;;;25.70;37.48;101061.99;104636;1285;74719;-88
2023/08/12 10:49:43;;;;;;;4.30;3.40;;;;;;;25.70;37.63;101056.63;104649;1285;69464;-88
2023/08/12 10:54:44;;;;;;;6.10;4.10;;;;;;;25.71;37.45;101058.42;104813;1285;69160;-89
2023/08/12 10:57:13;;;;;;;4.80;3.60;;;;;;;25.70;37.22;101053.02;104666;1288;69256;-89
2023/08/12 10:59:45;;;;;;;3.80;3.50;;;;;;;25.71;37.16;101046.84;104636;1283;73933;-88
2023/08/12 11:02:30;;;;;;;4.10;3.70;;;;;;;25.71;37.15;101048.59;104834;1285;69074;-89
2023/08/12 11:04:58;;;;;;;3.60;3.30;;;;;;;25.71;37.33;101045.30;104742;1286;69202;-89
2023/08/12 11:07:45;;;;;;;4.80;3.50;;;;;;;25.71;37.19;101044.05;104680;1283;69083;-90
2023/08/12 11:10:34;;;;;;;3.90;3.50;;;;;;;25.72;37.25;101043.64;104766;1285;69257;-94
2023/08/12 11:13:00;;;;;;;3.80;3.30;;;;;;;25.72;37.03;101038.27;104408;1283;73672;-88
2023/08/12 11:15:33;;;;;;;4.00;3.50;;;;;;;25.72;37.05;101034.36;104756;1288;66970;-89
2023/08/12 11:17:58;;;;;;;4.00;3.60;;;;;;;25.72;37.01;101032.50;104735;1289;69206;-88
2023/08/12 11:20:24;;;;;;;3.70;3.40;;;;;;;25.73;36.84;101032.80;105008;1285;69156;-88
2023/08/12 11:22:49;;;;;;;4.50;3.60;;;;;;;25.74;36.92;101025.63;106748;1285;66848;-89
2023/08/12 11:25:24;;;;;;;3.60;3.30;;;;;;;25.75;36.81;101023.34;106385;1285;66842;-92
2023/08/12 11:27:49;;;;;;;3.80;3.30;;;;;;;25.75;36.94;101024.48;106545;1286;67987;-88
2023/08/12 11:30:17;;;;;;;3.50;3.20;;;;;;;25.76;36.97;101026.46;105417;1289;69267;-88